Bruk link Alternativ webside om du vil se statistikk,rapport,graf,analyse og mye mer.

Vårt webkamera more information My webcam


webkamera på Randaberg more information webcam on Randaberg


Nedbørsradar  rain snow radar


Besøk vår andre værside:

Alternativ webside

Alternativ mobil

Regnskvett RandabergWebsite of another weatherstation



Ikke nødvendig med spesiell oppmerksomhet.    Det er ingen advarsler

Nære METAR rapporter

   
ENHD - Haugesund
oppdatert: 16-10-2021 06:50
For det meste skyet  
For det meste skyet  
   Vind: VEST 12.3 m/s
Vind: VEST 12.3 m/s
Temperatur: 10°C
Wind Chill: 6°C
Duggpunkt: 5°C
Fuktighet: 71%
Barometer: 1010 hPa
Skyer: For det meste skyet
Sikt: More than 10 km
Skydetaljer: få skyer 762 m,
For det meste skyet 1280.2 m
ENHD 160450Z 28024KT 9999 FEW025 BKN042 10/05 Q1010
ENZV - Randaberg
oppdatert: 16-10-2021 06:50
Overskyet  
Overskyet  
   Vind: VEST 9.8 m/s
Vind: VEST 9.8 m/s
Temperatur: 10°C
Wind Chill: 6°C
Duggpunkt: 5°C
Fuktighet: 71%
Barometer: 1010 hPa
Skyer: Overskyet
Sikt: More than 10 km
Skydetaljer: Delvis Skyet 823 m,
For det meste skyet 1066.8 m,
Overskyet 3657.6 m
ENZV 160450Z 28019KT 9999 SCT027 BKN035 OVC120 10/05 Q1010 TEMPO SHRA
ENBR - Bergen
oppdatert: 16-10-2021 06:50
Lett regn, For det meste skyet  
Lett regn, For det meste skyet  
   Vind: varierer 1.5 m/s
Vind: varierer 1.5 m/s
Temperatur: 7°C
Wind Chill: 6°C
Duggpunkt: 5°C
Fuktighet: 87%
Barometer: 1008 hPa
Skyer: For det meste skyet
Sikt: More than 10 km
Skydetaljer: Delvis Skyet 1066.8 m,
For det meste skyet 1402.1 m
ENBR 160450Z VRB03KT 9999 -RA SCT035 BKN046 07/05 Q1008 TEMPO 32010KT 4000 SHRA BKN012CB RMK WIND 1200FT 29014KT
ENCN - Kristiansand
oppdatert: 16-10-2021 06:50
få skyer  
få skyer  
   Vind: SV 5.1 m/s
Vind: SV 5.1 m/s
Temperatur: 8°C
Wind Chill: 5°C
Duggpunkt: 4°C
Fuktighet: 76%
Barometer: 1010 hPa
Skyer: få skyer
Sikt: More than 10 km
Skydetaljer: få skyer 762 m
ENCN 160450Z 22010KT 9999 FEW025 08/04 Q1010
ENGM - Oslo
oppdatert: 16-10-2021 06:50
Klart  
Klart  
   Vind: VSV 1.5 m/s
Vind: VSV 1.5 m/s
Temperatur: 5°C
Wind Chill: 4°C
Duggpunkt: -1°C
Fuktighet: 66%
Barometer: 1003 hPa
Sikt: More than 10 km
Skydetaljer: Klart
ENGM 160450Z 24003KT CAVOK 05/M01 Q1003 NOSIG
ENVA - Trondheim
oppdatert: 16-10-2021 06:50
For det meste skyet  
For det meste skyet  
   Vind: VSV 7.2 m/s
Vind: VSV 7.2 m/s
Temperatur: 4°C
Wind Chill: -1°C
Duggpunkt: 2°C
Fuktighet: 87%
Barometer: 998 hPa
Skyer: For det meste skyet
Sikt: More than 10 km
Skydetaljer: få skyer 426.7 m,
Delvis Skyet 883.9 m,
For det meste skyet 1249.7 m
ENVA 160450Z 24014KT 9999 FEW014 SCT029 BKN041 04/02 Q0998 RERA TEMPO 4000 SHRA BKN012CB RMK WIND 670FT 24017G33KT

Script utviklet av  Saratoga-weather.org Tilrettelagt for malen av  Weerstation Leuven

Du finner vår vær info også på:

European Weather Network

WeatherCloud

Weather Underground

Citizen Weather Observer Program (CWOP)

Utstyr vi bruker:

Værstsjon
Oregon scientific WMR 300

Værprogram
Meteobridge

Oregon scientific WMR 300

Meteobridge